Palm Desert, California
Current Conditions -  °F | °C
As of 4:53 PM on Friday 19 Dec 2014 (Local Time) from KPSP Reporting Station
Broken Clouds Broken Clouds  
Wind Chill: 63°   Ceiling: 20000
Heat Index: 63°   Visibility: 10mi
Dew Point: 40°   Wind: 0mph
Humidity: 43%   Direction: NA
Pressure: 30.16"   Gusts: NA
Location:  33.73°N, 116.38°W
Report Text: KPSP 200053Z 00000KT 10SM SCT150 BKN200 17/04 A3016 RMK AO2 SLP215 T01720044
Loading
Personal Weather Stations






























Interactive Weather Map New forecast layout! Learn more

10-Day Weather Forecast

Advertisements
Track Severe Weather on mobile